Flight Track Log - Related Links

Times and Time Zones

All times are in EST time to prevent confusion due to time zone crossing. See the EJA941 flight status page for this flight to view local times or setup timezone preferences in your user account.

Time Position Orientation Groundspeed Altitude Reporting Facility
EST Latitude Longitude Course Direction KTS MPH feet Rate Location/Type
Thu 06:53:13 AM 38.9333 -77.5333 256° West 211 243 2,900  Level Potomac TRACON
Thu 06:54:13 AM 38.9167 -77.6167 256° West 241 277 6,300 2,500 Climbing Potomac TRACON
Thu 06:55:13 AM 38.9000 -77.7000 256° West 241 277 7,900 2,167 Climbing Potomac TRACON
Thu 06:56:37 AM 38.8681 -77.8072 249° West 245 282 11,500 1,986 Climbing Washington Center
Thu 06:57:38 AM 38.8619 -77.9003 265° West 268 308 12,700 1,462 Climbing Washington Center
Thu 06:58:36 AM 38.8597 -78.0175 269° West 300 345 14,400 1,815 Climbing Washington Center
Thu 06:59:37 AM 38.8553 -78.1375 267° West 325 374 16,300 1,707 Climbing Washington Center
Thu 07:00:39 AM 38.8525 -78.2681 268° West 335 386 17,900 1,785 Climbing Washington Center
Thu 07:01:38 AM 38.8517 -78.3933 270° West 348 400 19,900 2,000 Climbing Washington Center
Thu 07:02:39 AM 38.8319 -78.5178 259° West 353 406 21,900 1,967 Climbing Washington Center
Thu 07:03:40 AM 38.8100 -78.6475 258° West 359 413 23,900 2,017 Climbing Washington Center
Thu 07:04:38 AM 38.7881 -78.7744 258° West 369 425 25,900 2,017 Climbing Washington Center
Thu 07:05:39 AM 38.7656 -78.9064 258° West 375 432 27,900 2,017 Climbing Washington Center
Thu 07:06:37 AM 38.7431 -79.0358 257° West 375 432 29,900 2,051 Climbing Washington Center
Thu 07:07:36 AM 38.7225 -79.1681 259° West 380 437 31,900 2,100 Climbing Washington Center
Thu 07:08:37 AM 38.7019 -79.3028 259° West 380 437 34,100 2,132 Climbing Washington Center
Thu 07:09:37 AM 38.6836 -79.4161 258° West 380 437 36,200 2,016 Climbing Washington Center
Thu 07:10:39 AM 38.6631 -79.5400 258° West 369 425 38,200 1,600 Climbing Washington Center
Thu 07:11:37 AM 38.6444 -79.6586 259° West 356 410 39,400 1,059 Climbing Washington Center
Thu 07:12:38 AM 38.6214 -79.7822 257° West 356 410 40,300 1,059 Climbing Washington Center
Thu 07:13:36 AM 38.5981 -79.9139 257° West 356 410 41,500 908 Climbing Washington Center
Thu 07:14:37 AM 38.5747 -80.0347 256° West 356 410 42,100 503 Climbing Washington Center
Thu 07:16:23 AM 38.5344 -80.2444 256° West 359 413 42,900 323 Climbing Indianapolis Center
Thu 07:17:24 AM 38.5114 -80.3658 256° West 363 418 43,000 49 Climbing Indianapolis Center
Thu 07:18:25 AM 38.4875 -80.4936 257° West 372 428 43,000  Level Indianapolis Center
Thu 07:19:25 AM 38.4625 -80.6247 256° West 379 436 43,000  Level Indianapolis Center
Thu 07:20:26 AM 38.4378 -80.7575 257° West 382 440 43,000  Level Indianapolis Center
Thu 07:21:27 AM 38.4119 -80.8886 256° West 382 440 43,000  Level Indianapolis Center
Thu 07:22:28 AM 38.3872 -81.0203 257° West 380 437 43,000  Level Indianapolis Center
Thu 07:23:29 AM 38.3603 -81.1508 255° West 379 436 43,000  Level Indianapolis Center
Thu 07:24:29 AM 38.3283 -81.2811 253° West 382 440 43,000  Level Indianapolis Center
Thu 07:25:30 AM 38.2967 -81.4111 253° West 382 440 43,000  Level Indianapolis Center
Thu 07:26:31 AM 38.2642 -81.5411 252° West 383 441 43,000  Level Indianapolis Center
Thu 07:27:32 AM 38.2319 -81.6739 253° West 389 448 43,000  Level Indianapolis Center
Thu 07:28:33 AM 38.1972 -81.8031 251° West 387 445 43,000  Level Indianapolis Center
Thu 07:29:34 AM 38.1611 -81.9314 250° West 385 443 43,000  Level Indianapolis Center
Thu 07:30:35 AM 38.1250 -82.0592 250° West 384 442 43,000  Level Indianapolis Center
Thu 07:31:36 AM 38.0825 -82.2081 250° West 387 445 43,000  Level Indianapolis Center
Thu 07:32:37 AM 38.0464 -82.3358 250° West 386 444 43,000  Level Indianapolis Center
Thu 07:33:38 AM 38.0094 -82.4656 250° West 390 449 43,000  Level Indianapolis Center
Thu 07:34:39 AM 37.9725 -82.5953 250° West 391 450 43,000  Level Indianapolis Center
Thu 07:35:40 AM 37.9344 -82.7236 249° West 390 449 43,000  Level Indianapolis Center
Thu 07:36:41 AM 37.8967 -82.8525 250° West 391 450 43,000  Level Indianapolis Center
Thu 07:37:42 AM 37.8586 -82.9817 250° West 392 451 43,000  Level Indianapolis Center
Thu 07:38:43 AM 37.8125 -83.1319 249° West 394 453 43,000  Level Indianapolis Center
Thu 07:39:44 AM 37.7742 -83.2617 250° West 394 453 43,000  Level Indianapolis Center
Thu 07:40:45 AM 37.7364 -83.3906 250° West 393 452 43,000  Level Indianapolis Center
Thu 07:41:47 AM 37.6969 -83.5203 249° West 396 456 43,000  Level Indianapolis Center
Thu 07:42:48 AM 37.6586 -83.6497 250° West 396 456 43,000  Level Indianapolis Center
Thu 07:43:49 AM 37.6197 -83.7781 249° West 394 453 43,000  Level Indianapolis Center
Thu 07:44:50 AM 37.5808 -83.9061 249° West 394 453 43,000  Level Indianapolis Center
Thu 07:45:52 AM 37.5411 -84.0342 249° West 392 451 43,000  Level Indianapolis Center
Thu 07:46:53 AM 37.5017 -84.1636 249° West 394 453 43,000  Level Indianapolis Center
Thu 07:47:54 AM 37.4556 -84.3144 249° West 396 456 43,000  Level Indianapolis Center
Thu 07:48:55 AM 37.4161 -84.4425 249° West 394 453 43,000  Level Indianapolis Center
Thu 07:49:57 AM 37.3744 -84.5714 248° West 397 457 43,000  Level Indianapolis Center
Thu 07:50:58 AM 37.3350 -84.6989 249° West 391 450 43,000  Level Indianapolis Center
Thu 07:52:00 AM 37.2953 -84.8275 249° West 395 455 43,000  Level Indianapolis Center
Thu 07:53:01 AM 37.2533 -84.9544 247° West 394 453 43,000  Level Indianapolis Center
Thu 07:54:02 AM 37.2133 -85.0814 248° West 392 451 43,000  Level Indianapolis Center
Thu 07:55:04 AM 37.1742 -85.2081 249° West 392 451 43,000  Level Indianapolis Center
Thu 07:56:05 AM 37.1267 -85.3553 248° West 390 449 43,000  Level Indianapolis Center
Thu 07:57:07 AM 37.0867 -85.4819 248° West 391 450 43,000  Level Indianapolis Center
Thu 07:58:08 AM 37.0497 -85.5972 248° West 392 451 43,000  Level Indianapolis Center
Thu 07:59:10 AM 37.0089 -85.7247 248° West 393 452 43,000  Level Indianapolis Center
Thu 08:00:11 AM 36.9667 -85.8519 247° West 392 451 43,000  Level Indianapolis Center
Thu 08:01:13 AM 36.9181 -86.0017 248° West 396 456 43,000  Level Indianapolis Center
Thu 08:02:14 AM 36.8756 -86.1292 247° West 396 456 43,000  Level Indianapolis Center
Thu 08:03:10 AM 36.8411 -86.2381 248° West 397 457 43,000  Level Memphis Center
Thu 08:04:11 AM 36.7986 -86.3650 247° West 395 455 43,000  Level Memphis Center
Thu 08:05:12 AM 36.7561 -86.4942 248° West 398 458 43,000  Level Memphis Center
Thu 08:06:13 AM 36.7131 -86.6211 247° West 396 456 43,000  Level Memphis Center
Thu 08:07:14 AM 36.6708 -86.7492 248° West 399 459 43,000  Level Memphis Center
Thu 08:08:14 AM 36.6278 -86.8764 247° West 398 458 43,000  Level Memphis Center
Thu 08:09:15 AM 36.5781 -87.0244 247° West 398 458 43,000  Level Memphis Center
Thu 08:10:16 AM 36.5344 -87.1511 247° West 399 459 43,000  Level Memphis Center
Thu 08:11:17 AM 36.4906 -87.2811 247° West 403 464 43,000  Level Memphis Center
Thu 08:12:18 AM 36.4467 -87.4108 247° West 406 467 43,000  Level Memphis Center
Thu 08:13:19 AM 36.4017 -87.5408 247° West 406 467 43,000  Level Memphis Center
Thu 08:14:20 AM 36.3572 -87.6719 247° West 409 471 43,000  Level Memphis Center
Thu 08:15:21 AM 36.3117 -87.8028 247° West 411 473 43,000  Level Memphis Center
Thu 08:16:23 AM 36.2650 -87.9342 246° West 412 474 43,000  Level Memphis Center
Thu 08:17:24 AM 36.2200 -88.0647 247° West 411 473 43,000  Level Memphis Center
Thu 08:18:25 AM 36.1744 -88.1947 247° West 410 472 43,000  Level Memphis Center
Thu 08:19:26 AM 36.1286 -88.3250 246° West 410 472 43,000  Level Memphis Center
Thu 08:20:27 AM 36.0831 -88.4525 246° West 407 468 43,000  Level Memphis Center
Thu 08:21:28 AM 36.0369 -88.5822 246° West 410 472 43,000  Level Memphis Center
Thu 08:22:29 AM 35.9903 -88.7117 246° West 410 472 43,000  Level Memphis Center
Thu 08:23:30 AM 35.9425 -88.8431 246° West 415 478 43,000  Level Memphis Center
Thu 08:24:32 AM 35.8967 -88.9731 247° West 414 476 43,000  Level Memphis Center
Thu 08:25:33 AM 35.8489 -89.1031 246° West 414 476 43,000  Level Memphis Center
Thu 08:26:34 AM 35.7919 -89.2600 246° West 415 478 43,000  Level Memphis Center
Thu 08:27:35 AM 35.7444 -89.3919 246° West 417 480 43,000  Level Memphis Center
Thu 08:28:37 AM 35.6964 -89.5225 246° West 417 480 43,000  Level Memphis Center
Thu 08:29:38 AM 35.6542 -89.6375 246° West 419 482 43,000  Level Memphis Center
Thu 08:30:39 AM 35.5972 -89.7903 245° Southwest 419 482 43,000  Level Memphis Center
Thu 08:31:41 AM 35.5486 -89.9211 245° Southwest 419 482 43,000  Level Memphis Center
Thu 08:32:42 AM 35.4997 -90.0522 245° Southwest 420 483 43,000  Level Memphis Center
Thu 08:33:44 AM 35.4514 -90.1811 245° Southwest 417 480 43,000  Level Memphis Center
Thu 08:34:45 AM 35.4019 -90.3131 245° Southwest 421 484 43,000  Level Memphis Center
Thu 08:35:47 AM 35.3528 -90.4428 245° Southwest 418 481 43,000  Level Memphis Center
Thu 08:36:48 AM 35.3042 -90.5725 245° Southwest 418 481 43,000  Level Memphis Center
Thu 08:37:50 AM 35.2550 -90.7031 245° Southwest 418 481 43,000  Level Memphis Center
Thu 08:38:52 AM 35.2047 -90.8328 245° Southwest 420 483 43,000  Level Memphis Center
Thu 08:39:53 AM 35.1458 -90.9842 245° Southwest 420 483 43,000  Level Memphis Center
Thu 08:40:55 AM 35.0953 -91.1153 245° Southwest 422 486 43,000  Level Memphis Center
Thu 08:41:56 AM 35.0469 -91.2450 246° West 419 482 43,000  Level Memphis Center
Thu 08:42:58 AM 34.9961 -91.3756 245° Southwest 421 484 43,000  Level Memphis Center
Thu 08:43:59 AM 34.9442 -91.5067 244° Southwest 422 486 43,000  Level Memphis Center
Thu 08:45:01 AM 34.8953 -91.6347 245° Southwest 420 483 43,000  Level Memphis Center
Thu 08:46:02 AM 34.8450 -91.7622 244° Southwest 418 481 43,000  Level Memphis Center
Thu 08:47:04 AM 34.7933 -91.8903 244° Southwest 420 483 43,000  Level Memphis Center
Thu 08:48:05 AM 34.7442 -92.0169 245° Southwest 417 480 43,000  Level Memphis Center
Thu 08:49:07 AM 34.6928 -92.1433 244° Southwest 416 479 43,000  Level Memphis Center
Thu 08:50:08 AM 34.6542 -92.2731 250° West 411 473 43,000  Level Memphis Center
Thu 08:51:10 AM 34.6122 -92.4308 252° West 410 472 43,000  Level Memphis Center
Thu 08:52:12 AM 34.5781 -92.5622 253° West 409 471 43,000  Level Memphis Center
Thu 08:53:13 AM 34.5442 -92.6925 253° West 406 467 43,000  Level Memphis Center
Thu 08:54:15 AM 34.5089 -92.8219 252° West 405 466 43,000  Level Memphis Center
Thu 08:55:17 AM 34.4736 -92.9522 252° West 406 467 43,000  Level Memphis Center
Thu 08:56:18 AM 34.4383 -93.0828 252° West 406 467 43,000  Level Memphis Center
Thu 08:57:20 AM 34.4033 -93.2125 252° West 405 466 43,000  Level Memphis Center
Thu 08:58:21 AM 34.3683 -93.3414 252° West 405 466 43,000  Level Memphis Center
Thu 08:59:02 AM 34.3436 -93.4333 252° West 407 468 43,000  Level Fort Worth Center
Thu 09:00:03 AM 34.3083 -93.5639 252° West 409 471 43,000 -49 Level Fort Worth Center
Thu 09:01:05 AM 34.2700 -93.6933 250° West 412 474 42,900  Descending Fort Worth Center
Thu 09:02:06 AM 34.2131 -93.8458 246° West 416 479 43,000 49 Climbing Fort Worth Center
Thu 09:03:08 AM 34.1672 -93.9722 246° West 415 478 43,000  Level Fort Worth Center
Thu 09:04:09 AM 34.1192 -94.0964 245° Southwest 414 476 43,000  Level Fort Worth Center
Thu 09:05:10 AM 34.0536 -94.2111 235° Southwest 415 478 43,000  Level Fort Worth Center
Thu 09:06:12 AM 33.9914 -94.3286 237° Southwest 418 481 43,000 -732 Level Fort Worth Center
Thu 09:07:13 AM 33.9483 -94.4550 248° West 413 475 41,500 -1,805 Descending Fort Worth Center
Thu 09:08:15 AM 33.9019 -94.5833 246° West 420 483 39,300 -2,341 Descending Fort Worth Center
Thu 09:09:16 AM 33.8486 -94.7367 247° West 418 481 36,700 -2,341 Descending Fort Worth Center
Thu 09:10:18 AM 33.8039 -94.8625 247° West 411 473 34,500 -2,146 Descending Fort Worth Center
Thu 09:11:19 AM 33.7575 -94.9911 247° West 421 484 32,300 -2,164 Descending Fort Worth Center
Thu 09:12:20 AM 33.7103 -95.1192 246° West 422 486 30,100 -2,195 Descending Fort Worth Center
Thu 09:13:22 AM 33.6631 -95.2497 247° West 427 491 27,800 -2,244 Descending Fort Worth Center
Thu 09:14:23 AM 33.6158 -95.3806 247° West 429 494 25,500 -2,195 Descending Fort Worth Center
Thu 09:15:25 AM 33.5683 -95.5078 246° West 422 486 23,300 -2,293 Descending Fort Worth Center
Thu 09:16:26 AM 33.5153 -95.6550 247° West 411 473 20,800 -2,341 Descending Fort Worth Center
Thu 09:17:28 AM 33.4683 -95.7839 246° West 396 456 18,500 -2,146 Descending Fort Worth Center
Thu 09:18:29 AM 33.4231 -95.9019 245° Southwest 394 453 16,400 -2,049 Descending Fort Worth Center
Thu 09:19:31 AM 33.3811 -96.0178 247° West 382 440 14,300 -2,780 Descending Fort Worth Center
Thu 09:20:32 AM 33.3383 -96.1306 246° West 344 396 10,700 -2,293 Descending Fort Worth Center
Thu 09:21:34 AM 33.3056 -96.2194 246° West 289 333 9,600 -823 Descending Fort Worth Center
Thu 09:22:36 AM 33.2764 -96.2964 246° West 258 297 9,000 -488 Descending Fort Worth Center
Thu 09:23:37 AM 33.2347 -96.3769 238° Southwest 267 307 8,600 -887 Descending Fort Worth Center
Thu 09:24:31 AM 33.2000 -96.4333 234° Southwest 260 299 7,300 -1,526 Descending Dallas / Fort Worth TRACON
Thu 09:25:31 AM 33.1667 -96.5167 244° Southwest 258 297 5,700 -1,150 Descending Dallas / Fort Worth TRACON
Thu 09:26:31 AM 33.1333 -96.5833 239° Southwest 250 288 5,000 -350 Descending Dallas / Fort Worth TRACON
Thu 09:27:31 AM 33.1000 -96.6500 239° Southwest 174 200 5,000  Level Dallas / Fort Worth TRACON
Thu 09:28:31 AM 33.0667 -96.6833 220° Southwest 163 188 5,000  Level Dallas / Fort Worth TRACON
Thu 09:29:31 AM 33.0500 -96.7333 248° West 165 190 5,000 -200 Level Dallas / Fort Worth TRACON
Thu 09:30:31 AM 33.0333 -96.7833 248° West 169 194 4,600 -500 Descending Dallas / Fort Worth TRACON
Thu 09:31:31 AM 33.0167 -96.8333 248° West 164 189 4,000 -650 Descending Dallas / Fort Worth TRACON
Thu 09:32:31 AM 33.0000 -96.8833 248° West 148 170 3,300 -500 Descending Dallas / Fort Worth TRACON
Thu 09:33:31 AM 32.9833 -96.9167 239° Southwest 139 160 3,000 -400 Descending Dallas / Fort Worth TRACON
Thu 09:34:31 AM 32.9500 -96.9500 220° Southwest 151 174 2,500 -500 Descending Dallas / Fort Worth TRACON
Thu 09:35:31 AM 32.9167 -96.9333 157° South 152 175 2,000 -550 Descending Dallas / Fort Worth TRACON
Thu 09:36:31 AM 32.8833 -96.9000 140° Southeast 124 143 1,400 -600 Descending Dallas / Fort Worth TRACON

Login

Don't have an account? Register now (free) for customized features, flight alerts, and more!